KGAI/GAI METAR and TAF weather

Enter ICAO airport designator
Station Type Date Time Source
KGAI METAR 2022/12/08 12:56 UTC NOAA

KGAI 081256Z AUTO 00000KT 9SM CLR 07/06 A3027 RMK AO2 SLP264 T00670061


Station Type Date Time Source
KGAI Decoded METAR 2022/12/08 12:56 UTC NOAA

Station name not available
Dec 08, 2022 - 07:56 AM EST / 2022.12.08 1256 UTC
Wind: Calm:0
Visibility: 9 mile(s):0
Sky conditions: clear
Temperature: 44.1 F (6.7 C)
Dew Point: 43.0 F (6.1 C)
Relative Humidity: 95%
Pressure (altimeter): 30.27 in. Hg (1025 hPa)
ob: KGAI 081256Z AUTO 00000KT 9SM CLR 07/06 A3027 RMK AO2 SLP264 T00670061
cycle: 13

Station Type Date Time Source
KGAI TAF UTC NOAA

Error!

Example: see airport list